Time;durP1;ratioP1;P1;durP2;ratioP2;P2;SDS_P1;SDS_P2;PMS_P1;PMS_P2;Temp;Humidity;BMP_temperature;BMP_pressure;BME280_temperature;BME280_humidity;BME280_pressure;Samples;Min_cycle;Max_cycle;Signal;HPM_P1;HPM_P2
2024/04/10 00:01:18;;;;;;;10.02;3.20;;;;;;;15.54;78.24;99793.66;6888225;25;20002;-67
2024/04/10 00:04:19;;;;;;;8.65;3.42;;;;;;;15.49;79.55;99801.13;6856667;25;19997;-67
2024/04/10 00:07:20;;;;;;;8.50;2.90;;;;;;;15.43;79.99;99812.16;6870953;25;20350;-67
2024/04/10 00:10:21;;;;;;;3.97;2.90;;;;;;;15.36;80.84;99811.84;6851213;25;20065;-67
2024/04/10 00:13:22;;;;;;;7.45;3.05;;;;;;;15.32;81.49;99811.28;6854945;25;20008;-67
2024/04/10 00:16:23;;;;;;;5.82;3.25;;;;;;;15.30;82.58;99805.31;6860731;25;20008;-67
2024/04/10 00:19:26;;;;;;;6.63;3.58;;;;;;;15.28;83.09;99809.88;6851417;25;20008;-67
2024/04/10 00:22:27;;;;;;;10.23;3.03;;;;;;;15.22;83.50;99799.88;6900827;25;19997;-68
2024/04/10 00:25:27;;;;;;;6.47;3.25;;;;;;;15.11;82.67;99799.94;6840046;25;20009;-67
2024/04/10 00:28:30;;;;;;;7.03;3.03;;;;;;;15.08;82.76;99798.41;6880852;25;20066;-68
2024/04/10 00:31:34;;;;;;;8.48;2.80;;;;;;;15.05;83.41;99803.94;6873323;25;20008;-68
2024/04/10 00:34:35;;;;;;;9.95;2.97;;;;;;;14.96;83.85;99807.31;6853638;25;20001;-76
2024/04/10 00:37:36;;;;;;;10.75;3.08;;;;;;;14.86;84.33;99807.22;6865528;25;19997;-68
2024/04/10 00:40:37;;;;;;;4.88;3.08;;;;;;;14.87;84.48;99808.91;6874980;25;20435;-67
2024/04/10 00:43:38;;;;;;;11.65;2.95;;;;;;;14.86;84.71;99809.84;6853111;25;20030;-68
2024/04/10 00:46:39;;;;;;;5.75;2.58;;;;;;;14.77;85.59;99802.75;6860639;25;20012;-67
2024/04/10 00:49:40;;;;;;;7.07;3.28;;;;;;;14.80;85.70;99813.00;6831685;25;20065;-68
2024/04/10 00:52:43;;;;;;;6.00;2.70;;;;;;;14.77;86.31;99810.63;6877496;25;19997;-76
2024/04/10 00:55:43;;;;;;;6.20;3.33;;;;;;;14.78;85.84;99807.03;6841168;25;20045;-76
2024/04/10 00:58:44;;;;;;;4.45;2.58;;;;;;;14.81;85.26;99805.97;6828352;26;19998;-76
2024/04/10 01:01:45;;;;;;;10.20;3.25;;;;;;;14.79;84.28;99803.47;6797106;25;20001;-76
2024/04/10 01:04:46;;;;;;;6.25;3.00;;;;;;;14.79;84.59;99811.34;6864816;25;20016;-75
2024/04/10 01:07:47;;;;;;;4.88;2.80;;;;;;;14.75;83.47;99809.09;6859718;26;19997;-67
2024/04/10 01:10:48;;;;;;;10.52;3.30;;;;;;;14.72;83.34;99799.66;6827056;26;20392;-67
2024/04/10 01:13:49;;;;;;;5.15;2.95;;;;;;;14.74;83.70;99810.88;6809135;26;20450;-67
2024/04/10 01:16:50;;;;;;;6.18;3.30;;;;;;;14.71;83.82;99804.09;6827545;26;19994;-67
2024/04/10 01:19:51;;;;;;;10.65;3.08;;;;;;;14.61;85.36;99815.47;6860047;26;19994;-67
2024/04/10 01:22:51;;;;;;;6.38;2.85;;;;;;;14.57;85.99;99814.06;6888280;25;20017;-67
2024/04/10 01:25:52;;;;;;;10.05;3.30;;;;;;;14.43;86.91;99816.00;6905828;25;19997;-76
2024/04/10 01:28:53;;;;;;;6.68;2.97;;;;;;;14.41;87.76;99823.16;6854960;26;20029;-68
2024/04/10 01:31:56;;;;;;;7.03;3.37;;;;;;;14.30;88.66;99824.00;6843825;26;20472;-67
2024/04/10 01:34:57;;;;;;;9.73;3.25;;;;;;;14.25;88.23;99817.47;6859013;26;20002;-67
2024/04/10 01:39:28;;;;;;;5.28;3.30;;;;;;;14.26;89.59;99833.06;6978526;25;1277355;-69
2024/04/10 01:42:29;;;;;;;4.35;2.90;;;;;;;14.20;90.48;99838.81;6977415;25;20509;-68
2024/04/10 01:45:30;;;;;;;6.22;3.30;;;;;;;14.19;90.18;99834.53;6943942;25;19995;-69
2024/04/10 01:48:30;;;;;;;7.22;3.25;;;;;;;14.11;91.44;99836.94;6977350;25;20345;-68
2024/04/10 01:51:31;;;;;;;9.82;3.10;;;;;;;14.07;91.14;99833.72;6977462;25;20433;-68
2024/04/10 01:54:32;;;;;;;4.72;2.90;;;;;;;14.01;91.31;99830.75;6977522;25;19999;-77
2024/04/10 01:57:33;;;;;;;5.75;3.13;;;;;;;14.01;91.95;99836.81;6943629;25;20074;-68
2024/04/10 02:00:37;;;;;;;4.00;2.55;;;;;;;13.96;92.01;99831.09;6943958;25;20326;-77
2024/04/10 02:03:38;;;;;;;8.52;3.10;;;;;;;13.91;92.03;99834.06;6943995;25;20036;-68
2024/04/10 02:06:38;;;;;;;8.05;3.42;;;;;;;13.91;91.98;99833.25;6943330;25;20417;-68
2024/04/10 02:09:39;;;;;;;7.72;2.97;;;;;;;13.90;92.46;99837.66;6943645;25;20020;-77
2024/04/10 02:12:40;;;;;;;8.40;3.55;;;;;;;13.89;93.23;99833.34;6976948;25;20000;-77
2024/04/10 02:15:42;;;;;;;5.70;3.40;;;;;;;13.81;93.54;99842.78;6943491;25;20024;-77
2024/04/10 02:18:43;;;;;;;6.32;3.00;;;;;;;13.77;94.26;99839.56;6977034;25;20004;-77
2024/04/10 02:21:44;;;;;;;8.13;3.15;;;;;;;13.74;95.14;99842.44;6943260;25;20063;-77
2024/04/10 02:24:45;;;;;;;5.30;3.03;;;;;;;13.70;94.90;99839.19;6943334;25;20028;-76
2024/04/10 02:27:46;;;;;;;4.03;2.72;;;;;;;13.72;95.16;99844.34;6943183;25;20002;-77
2024/04/10 02:30:46;;;;;;;4.13;2.58;;;;;;;13.69;94.50;99840.19;6943374;25;20405;-77
2024/04/10 02:33:47;;;;;;;4.72;3.22;;;;;;;13.64;94.88;99833.59;6976502;25;19992;-76
2024/04/10 02:36:49;;;;;;;7.65;3.20;;;;;;;13.61;95.02;99846.94;6942654;25;20450;-68
2024/04/10 02:39:50;;;;;;;6.70;2.70;;;;;;;13.56;95.06;99839.44;6943062;25;20337;-68
2024/04/10 02:43:04;;;;;;;7.05;3.30;;;;;;;13.50;96.02;99839.91;6976650;25;20002;-77
2024/04/10 02:46:08;;;;;;;8.50;3.40;;;;;;;13.46;95.77;99841.91;6976446;25;20433;-77
2024/04/10 02:49:09;;;;;;;7.68;3.55;;;;;;;13.46;95.66;99848.94;6965652;25;20007;-77
2024/04/10 02:52:12;;;;;;;5.95;3.28;;;;;;;13.44;95.71;99845.63;6954756;25;20047;-69
2024/04/10 02:55:13;;;;;;;5.18;2.90;;;;;;;13.40;96.42;99849.41;6922715;25;19992;-68
2024/04/10 02:58:14;;;;;;;6.13;3.03;;;;;;;13.35;95.72;99844.53;6955623;25;20011;-77
2024/04/10 03:01:15;;;;;;;6.47;3.00;;;;;;;13.32;96.19;99850.00;6922807;25;19996;-77
2024/04/10 03:04:16;;;;;;;6.15;2.85;;;;;;;13.26;96.74;99855.66;6955766;25;19995;-77
2024/04/10 03:07:17;;;;;;;8.38;3.25;;;;;;;13.23;96.96;99869.84;6922430;25;19992;-68
2024/04/10 03:10:17;;;;;;;6.80;3.38;;;;;;;13.12;97.79;99861.97;6922473;25;20003;-68
2024/04/10 03:13:18;;;;;;;6.88;3.33;;;;;;;13.14;97.84;99874.91;6955486;25;20052;-68
2024/04/10 03:16:19;;;;;;;8.63;3.45;;;;;;;13.11;98.07;99873.38;6955408;25;20354;-68
2024/04/10 03:19:21;;;;;;;4.97;3.22;;;;;;;13.06;98.14;99865.88;6955293;25;20031;-69
2024/04/10 03:22:21;;;;;;;7.85;3.10;;;;;;;13.04;98.29;99875.63;6955569;25;19996;-77
2024/04/10 03:25:22;;;;;;;5.50;3.50;;;;;;;12.98;98.92;99878.69;6955255;25;19988;-76
2024/04/10 03:28:25;;;;;;;5.45;3.05;;;;;;;12.97;98.90;99879.66;6953769;25;20438;-76
2024/04/10 03:31:26;;;;;;;4.95;3.33;;;;;;;12.87;99.35;99874.25;6951744;25;20457;-77
2024/04/10 03:34:27;;;;;;;9.00;3.40;;;;;;;12.88;99.62;99886.38;6888603;25;20007;-68
2024/04/10 03:37:28;;;;;;;13.93;3.80;;;;;;;12.78;100.00;99885.38;6921579;25;20453;-68
2024/04/10 03:40:29;;;;;;;9.48;3.53;;;;;;;12.73;100.00;99890.13;6954917;25;19996;-69
2024/04/10 03:43:32;;;;;;;9.02;3.50;;;;;;;12.68;100.00;99889.63;6954936;25;20019;-68
2024/04/10 03:46:33;;;;;;;5.00;3.00;;;;;;;12.63;100.00;99904.84;6921908;25;19996;-68
2024/04/10 03:49:34;;;;;;;8.20;3.45;;;;;;;12.64;100.00;99902.13;6952329;25;20318;-76
2024/04/10 03:52:35;;;;;;;9.68;3.53;;;;;;;12.70;100.00;99908.66;6921585;25;20454;-77
2024/04/10 03:55:35;;;;;;;6.70;3.38;;;;;;;12.67;100.00;99906.28;6921755;25;19988;-76
2024/04/10 03:58:37;;;;;;;7.55;4.18;;;;;;;12.65;100.00;99905.56;6932381;25;19996;-76
2024/04/10 04:01:37;;;;;;;5.07;3.30;;;;;;;12.68;100.00;99918.41;6921297;25;20007;-76
2024/04/10 04:04:39;;;;;;;6.57;3.25;;;;;;;12.59;100.00;99917.28;6921561;25;19992;-76
2024/04/10 04:07:40;;;;;;;6.80;3.63;;;;;;;12.43;100.00;99920.16;6954707;25;20063;-76
2024/04/10 04:10:43;;;;;;;9.38;3.50;;;;;;;12.46;100.00;99922.56;6948917;25;20024;-75
2024/04/10 04:13:45;;;;;;;8.75;3.47;;;;;;;12.55;100.00;99917.63;6949861;25;20000;-76
2024/04/10 04:16:49;;;;;;;8.52;3.88;;;;;;;12.51;100.00;99917.00;6947944;25;20004;-76
2024/04/10 04:19:50;;;;;;;8.38;4.13;;;;;;;12.57;100.00;99920.97;6946745;25;19992;-68
2024/04/10 04:22:51;;;;;;;8.90;3.85;;;;;;;12.68;100.00;99934.13;6921030;25;20003;-68
2024/04/10 04:25:52;;;;;;;5.40;3.63;;;;;;;12.66;100.00;99936.00;6915797;25;20637;-68
2024/04/10 04:28:53;;;;;;;12.40;4.53;;;;;;;12.64;100.00;99936.13;6944367;25;20004;-76
2024/04/10 04:31:54;;;;;;;10.98;4.65;;;;;;;12.64;100.00;99943.13;6888317;25;20415;-68
2024/04/10 04:34:57;;;;;;;9.75;4.40;;;;;;;12.65;100.00;99939.59;6948406;25;20077;-77
2024/04/10 04:37:58;;;;;;;10.10;4.18;;;;;;;12.73;100.00;99933.81;6943576;25;20032;-77
2024/04/10 04:40:59;;;;;;;8.20;4.40;;;;;;;12.78;100.00;99936.91;6896266;25;19996;-77
2024/04/10 04:44:00;;;;;;;10.73;4.95;;;;;;;12.78;100.00;99956.06;6936998;25;19992;-77
2024/04/10 04:47:01;;;;;;;7.43;4.82;;;;;;;12.81;100.00;99945.41;6918796;25;20040;-77
2024/04/10 04:50:02;;;;;;;13.50;5.70;;;;;;;12.88;100.00;99949.22;6909560;25;20039;-77
2024/04/10 04:53:05;;;;;;;10.93;5.75;;;;;;;12.93;100.00;99951.53;6920447;25;20075;-69
2024/04/10 04:56:07;;;;;;;12.05;5.95;;;;;;;12.98;100.00;99951.19;6953806;25;20460;-77
2024/04/10 04:59:09;;;;;;;11.18;6.53;;;;;;;13.01;100.00;99959.69;6916262;25;20004;-77
2024/04/10 05:02:10;;;;;;;12.65;6.30;;;;;;;13.07;100.00;99948.75;6937911;25;20520;-77
2024/04/10 05:05:16;;;;;;;11.00;6.30;;;;;;;13.20;100.00;99946.06;6907374;25;20004;-77
2024/04/10 05:08:16;;;;;;;10.82;6.07;;;;;;;13.30;100.00;99961.94;6952328;25;20000;-77
2024/04/10 05:11:19;;;;;;;22.42;5.63;;;;;;;13.46;99.98;99964.28;6919171;25;20445;-77
2024/04/10 05:14:20;;;;;;;10.68;5.43;;;;;;;13.59;97.65;99958.94;6948208;25;20000;-77
2024/04/10 05:17:21;;;;;;;13.45;4.95;;;;;;;13.75;96.56;99956.00;6939943;25;19996;-68
2024/04/10 05:20:21;;;;;;;12.95;4.40;;;;;;;13.83;96.29;99951.03;6906648;25;20064;-69
2024/04/10 05:23:22;;;;;;;9.98;4.22;;;;;;;13.98;94.84;99946.38;6882218;25;20433;-68
2024/04/10 05:26:23;;;;;;;14.43;4.63;;;;;;;14.12;93.90;99961.91;6920021;25;20007;-68
2024/04/10 05:29:24;;;;;;;9.85;3.95;;;;;;;14.27;92.63;99952.03;6952328;25;19992;-68
2024/04/10 05:32:36;;;;;;;11.13;4.22;;;;;;;14.45;91.39;99947.94;6919389;25;20322;-68
2024/04/10 05:35:39;;;;;;;8.70;4.55;;;;;;;14.61;91.15;99963.34;6952177;25;19992;-69
2024/04/10 05:38:40;;;;;;;13.02;4.95;;;;;;;14.80;91.96;99951.38;6951998;25;20024;-68
2024/04/10 05:41:40;;;;;;;14.50;5.50;;;;;;;14.96;90.70;99956.22;6919039;25;20000;-68
2024/04/10 05:44:42;;;;;;;17.83;5.60;;;;;;;15.30;89.92;99952.50;6919030;25;20028;-69
2024/04/10 05:47:48;;;;;;;18.63;5.53;;;;;;;15.55;87.74;99950.47;6952218;25;19996;-68
2024/04/10 05:50:56;;;;;;;16.73;4.85;;;;;;;15.73;85.25;99950.78;6951940;25;20003;-68
2024/04/10 05:53:57;;;;;;;9.05;4.00;;;;;;;15.87;84.61;99957.47;6952258;25;19992;-68
2024/04/10 05:57:00;;;;;;;11.07;4.13;;;;;;;16.02;82.92;99948.31;6951861;25;20003;-69
2024/04/10 06:00:01;;;;;;;14.57;4.00;;;;;;;16.15;83.78;99950.72;6918687;25;20024;-68
2024/04/10 06:03:02;;;;;;;8.00;4.03;;;;;;;16.32;82.81;99952.69;6952040;25;20007;-68
2024/04/10 06:06:08;;;;;;;11.32;4.03;;;;;;;16.52;81.23;99958.06;6951553;25;19996;-68
2024/04/10 06:09:09;;;;;;;12.35;4.85;;;;;;;16.58;78.52;99948.78;6918428;25;20010;-67
2024/04/10 06:12:10;;;;;;;15.32;4.88;;;;;;;16.96;77.64;99949.84;6951571;25;19996;-68
2024/04/10 06:15:11;;;;;;;9.73;4.43;;;;;;;17.11;76.92;99951.09;6918411;25;20024;-68
2024/04/10 06:18:12;;;;;;;9.15;4.13;;;;;;;17.29;76.97;99954.69;6951437;25;20000;-68
2024/04/10 06:21:15;;;;;;;13.15;4.38;;;;;;;17.51;75.72;99952.75;6918160;25;20358;-69
2024/04/10 06:24:18;;;;;;;8.35;4.28;;;;;;;17.73;74.92;99964.81;6952785;25;20003;-77
2024/04/10 06:27:22;;;;;;;12.48;3.97;;;;;;;17.91;73.73;99964.91;6956369;25;20055;-77
2024/04/10 06:30:22;;;;;;;8.50;3.05;;;;;;;18.05;69.73;99961.81;6922675;25;19996;-77
2024/04/10 06:33:23;;;;;;;6.70;2.90;;;;;;;18.18;66.72;99969.44;6922852;25;20014;-77
2024/04/10 06:36:26;;;;;;;9.70;2.85;;;;;;;18.32;61.38;99978.69;6922779;25;20016;-76
2024/04/10 06:39:27;;;;;;;6.15;3.10;;;;;;;18.62;62.61;99971.47;6922119;25;20343;-77
2024/04/10 06:42:28;;;;;;;6.05;2.63;;;;;;;18.79;60.31;99983.09;6955630;25;20000;-77
2024/04/10 06:45:29;;;;;;;12.73;3.17;;;;;;;19.03;58.14;99982.53;6922670;25;20451;-77
2024/04/10 06:48:30;;;;;;;4.95;2.45;;;;;;;19.36;58.15;99983.66;6922465;25;19992;-69
2024/04/10 06:51:31;;;;;;;7.83;2.10;;;;;;;19.45;55.77;99987.19;6955435;25;20526;-68
2024/04/10 06:54:31;;;;;;;5.35;2.20;;;;;;;19.59;54.86;99994.59;6955501;25;20008;-69
2024/04/10 06:57:33;;;;;;;2.70;1.60;;;;;;;19.64;55.04;100000.25;6922316;25;20326;-69
2024/04/10 07:00:34;;;;;;;8.18;2.05;;;;;;;19.89;53.81;100000.44;6922209;25;20000;-69
2024/04/10 07:03:36;;;;;;;12.02;2.38;;;;;;;19.94;53.45;99992.88;6955533;25;19996;-68
2024/04/10 07:06:37;;;;;;;5.55;1.92;;;;;;;20.18;52.34;100002.81;6955203;25;20000;-69
2024/04/10 07:09:38;;;;;;;6.57;2.20;;;;;;;20.20;51.46;100018.50;6955185;25;20441;-68
2024/04/10 07:12:39;;;;;;;7.30;2.30;;;;;;;20.21;51.57;100017.53;6954925;25;20019;-68
2024/04/10 07:15:40;;;;;;;6.83;2.10;;;;;;;20.30;50.58;100017.44;6921738;25;19996;-68
2024/04/10 07:18:41;;;;;;;5.47;1.73;;;;;;;20.54;50.84;100022.00;6955236;25;20011;-67
2024/04/10 07:21:41;;;;;;;6.63;2.00;;;;;;;20.65;50.27;100017.44;6922242;25;20028;-73
2024/04/10 07:24:42;;;;;;;3.57;1.80;;;;;;;20.82;49.94;100021.00;6955350;25;20020;-76
2024/04/10 07:27:44;;;;;;;3.75;1.77;;;;;;;21.02;48.02;100026.84;6921925;25;20068;-76
2024/04/10 07:30:49;;;;;;;5.40;2.10;;;;;;;21.13;48.31;100027.38;6921963;25;20465;-76
2024/04/10 07:33:53;;;;;;;4.15;1.58;;;;;;;21.35;47.80;100038.34;6921743;25;20331;-76
2024/04/10 07:36:54;;;;;;;2.33;1.60;;;;;;;21.60;48.27;100030.44;6954369;25;20093;-76
2024/04/10 07:39:54;;;;;;;1.83;1.27;;;;;;;21.57;46.51;100036.91;6954953;25;19996;-76
2024/04/10 07:42:55;;;;;;;3.37;1.87;;;;;;;21.59;46.06;100044.72;6954818;25;19996;-76
2024/04/10 07:45:56;;;;;;;5.30;1.70;;;;;;;21.87;46.26;100048.72;6954819;25;20366;-76
2024/04/10 07:49:00;;;;;;;4.00;1.50;;;;;;;22.16;45.67;100043.88;6921601;25;20024;-76
2024/04/10 07:52:01;;;;;;;3.28;1.63;;;;;;;22.18;44.06;100041.88;6954470;25;20342;-76
2024/04/10 07:55:02;;;;;;;3.90;1.30;;;;;;;22.61;45.47;100045.94;6921460;25;20075;-76
2024/04/10 07:58:03;;;;;;;6.53;1.60;;;;;;;22.52;44.34;100052.25;6921402;25;20063;-76
2024/04/10 08:01:04;;;;;;;6.77;1.60;;;;;;;22.73;44.95;100054.34;6921027;25;20458;-76
2024/04/10 08:04:06;;;;;;;2.78;1.63;;;;;;;22.85;43.84;100047.63;6921190;25;19992;-76
2024/04/10 08:07:09;;;;;;;3.22;1.60;;;;;;;22.90;42.94;100055.94;6954341;25;20071;-76
2024/04/10 08:10:10;;;;;;;5.22;1.55;;;;;;;22.96;43.48;100054.41;6921160;25;19999;-76
2024/04/10 08:13:11;;;;;;;3.87;1.57;;;;;;;23.11;43.48;100059.84;6954257;25;20524;-76
2024/04/10 08:16:11;;;;;;;2.90;1.40;;;;;;;23.07;42.70;100058.53;6920976;25;20505;-76
2024/04/10 08:19:12;;;;;;;3.70;1.40;;;;;;;23.25;42.45;100064.44;6921039;25;19996;-76
2024/04/10 08:22:17;;;;;;;3.83;1.40;;;;;;;23.30;42.37;100067.38;6954378;25;20030;-76
2024/04/10 08:25:17;;;;;;;7.32;1.50;;;;;;;23.47;42.15;100062.81;6921301;25;20009;-76
2024/04/10 08:28:20;;;;;;;4.80;1.60;;;;;;;23.81;42.42;100066.88;6920837;25;20040;-68
2024/04/10 08:31:28;;;;;;;5.55;1.70;;;;;;;23.77;41.81;100072.75;6953999;25;20011;-68
2024/04/10 08:34:31;;;;;;;3.30;1.50;;;;;;;24.31;41.11;100072.56;6920753;25;20036;-68
2024/04/10 08:37:32;;;;;;;3.63;1.88;;;;;;;24.53;40.67;100066.38;6953831;25;20063;-68
2024/04/10 08:40:37;;;;;;;2.17;1.30;;;;;;;24.74;40.47;100078.94;6920978;25;20007;-77
2024/04/10 08:43:41;;;;;;;4.75;1.67;;;;;;;24.65;40.52;100077.41;6920760;25;19993;-77
2024/04/10 08:46:44;;;;;;;3.75;1.42;;;;;;;24.74;39.80;100076.28;6919370;25;20450;-77
2024/04/10 08:49:45;;;;;;;3.13;1.60;;;;;;;24.76;39.95;100072.63;6953752;25;20050;-77
2024/04/10 08:52:48;;;;;;;9.97;1.50;;;;;;;24.74;39.85;100068.28;6953560;25;20012;-76
2024/04/10 08:55:50;;;;;;;5.15;1.35;;;;;;;24.77;38.58;100066.25;6953730;25;20003;-77
2024/04/10 08:58:54;;;;;;;3.08;1.50;;;;;;;24.87;39.69;100066.78;6953419;25;19995;-77
2024/04/10 09:01:55;;;;;;;6.03;1.42;;;;;;;25.19;39.23;100064.72;6920134;25;20010;-77
2024/04/10 09:04:58;;;;;;;9.70;1.80;;;;;;;25.57;39.46;100059.97;6953419;25;19992;-77
2024/04/10 09:08:02;;;;;;;8.02;1.40;;;;;;;25.56;38.28;100063.69;6920081;25;20008;-77
2024/04/10 09:11:03;;;;;;;4.18;1.40;;;;;;;25.76;37.42;100071.03;6920019;25;20024;-77
2024/04/10 09:14:04;;;;;;;3.13;1.33;;;;;;;25.89;37.89;100081.84;6919907;25;20079;-77
2024/04/10 09:17:05;;;;;;;7.47;1.30;;;;;;;25.92;37.70;100078.81;6919899;25;20401;-77
2024/04/10 09:20:13;;;;;;;8.20;1.48;;;;;;;25.73;37.83;100086.44;6919882;25;20067;-77
2024/04/10 09:23:14;;;;;;;3.38;1.25;;;;;;;25.78;37.37;100088.56;6953061;25;20446;-77
2024/04/10 09:26:15;;;;;;;;;;;;;;;25.97;37.05;100086.28;6920357;25;20482;-77
2024/04/10 09:29:19;;;;;;;8.90;1.70;;;;;;;26.34;36.79;100093.94;6953061;25;19922;-77
2024/04/10 09:32:20;;;;;;;6.28;1.30;;;;;;;26.31;37.05;100093.50;6919618;25;20010;-77
2024/04/10 09:35:23;;;;;;;2.28;1.33;;;;;;;26.52;37.13;100098.78;6952983;25;20322;-77
2024/04/10 09:38:24;;;;;;;1.40;1.00;;;;;;;26.89;36.50;100096.75;6952515;25;20007;-77
2024/04/10 09:41:27;;;;;;;3.47;1.40;;;;;;;26.92;35.21;100108.91;6952481;25;20472;-76
2024/04/10 09:44:30;;;;;;;2.33;1.40;;;;;;;26.79;35.08;100106.16;6952525;25;20216;-77
2024/04/10 09:47:32;;;;;;;5.55;1.33;;;;;;;26.90;35.22;100095.72;6952515;25;19996;-77
2024/04/10 09:50:37;;;;;;;7.68;1.63;;;;;;;27.01;36.14;100097.00;6919179;25;20366;-77
2024/04/10 09:53:40;;;;;;;2.72;1.42;;;;;;;26.99;34.83;100093.69;6952079;25;20000;-77
2024/04/10 09:56:43;;;;;;;5.97;1.33;;;;;;;27.47;35.98;100098.22;6932209;25;20008;-68
2024/04/10 09:59:44;;;;;;;3.47;1.33;;;;;;;27.51;35.56;100091.41;6908412;25;20009;-68
2024/04/10 10:02:45;;;;;;;6.43;1.45;;;;;;;27.28;34.38;100089.91;6909046;25;20547;-69
2024/04/10 10:05:46;;;;;;;3.47;1.40;;;;;;;27.71;34.93;100094.91;6876269;25;20028;-69
2024/04/10 10:08:51;;;;;;;9.65;1.17;;;;;;;28.25;34.27;100097.63;6908483;25;20498;-69
2024/04/10 10:11:58;;;;;;;6.43;1.20;;;;;;;28.39;33.32;100107.31;6907461;25;19997;-68
2024/04/10 10:15:09;;;;;;;3.50;1.15;;;;;;;28.32;32.50;100110.00;6908786;25;20454;-69
2024/04/10 10:18:10;;;;;;;5.55;1.35;;;;;;;28.58;31.99;100104.81;6875371;25;20007;-69
2024/04/10 10:21:14;;;;;;;1.65;1.05;;;;;;;28.45;33.05;100105.66;6875940;25;20012;-69
2024/04/10 10:24:17;;;;;;;4.95;1.25;;;;;;;28.64;31.37;100104.81;6908819;25;20006;-68
2024/04/10 10:27:23;;;;;;;3.30;1.20;;;;;;;28.45;32.91;100101.09;6875829;25;19988;-68
2024/04/10 10:30:24;;;;;;;4.43;1.50;;;;;;;28.75;32.52;100102.53;6875748;25;20450;-69
2024/04/10 10:33:25;;;;;;;2.10;1.10;;;;;;;29.05;32.11;100100.09;6908569;25;20033;-69
2024/04/10 10:36:28;;;;;;;6.32;1.38;;;;;;;28.86;32.39;100101.84;6875796;25;20330;-69
2024/04/10 10:39:28;;;;;;;6.32;1.42;;;;;;;29.00;32.20;100098.06;6908164;25;20060;-69
2024/04/10 10:42:29;;;;;;;6.45;1.75;;;;;;;29.27;32.59;100089.91;6875522;25;20012;-68
2024/04/10 10:45:37;;;;;;;2.28;1.00;;;;;;;29.30;31.06;100100.22;6875727;25;20446;-68
2024/04/10 10:48:38;;;;;;;2.83;1.13;;;;;;;29.05;31.35;100092.88;6875535;25;20567;-68
2024/04/10 10:51:41;;;;;;;7.60;1.30;;;;;;;29.40;31.20;100103.25;6875659;25;19997;-68
2024/04/10 10:54:42;;;;;;;5.28;1.00;;;;;;;29.45;31.18;100097.25;6875428;25;20000;-68
2024/04/10 10:57:45;;;;;;;0.95;0.85;;;;;;;29.53;31.61;100095.13;6875261;25;20004;-68
2024/04/10 11:00:48;;;;;;;2.63;0.90;;;;;;;29.61;31.59;100099.41;6908378;25;20475;-69
2024/04/10 11:03:50;;;;;;;5.55;1.30;;;;;;;29.60;31.88;100107.69;6908116;25;20036;-68
2024/04/10 11:06:50;;;;;;;2.28;1.20;;;;;;;29.73;31.21;100103.09;6908293;25;20072;-69
2024/04/10 11:09:53;;;;;;;6.00;1.15;;;;;;;29.92;29.21;100112.03;6907142;25;20465;-69
2024/04/10 11:12:58;;;;;;;4.63;1.02;;;;;;;30.11;31.26;100109.41;6908039;25;20008;-68
2024/04/10 11:16:00;;;;;;;4.00;1.20;;;;;;;29.55;29.68;100102.97;6907860;25;20033;-69
2024/04/10 11:19:00;;;;;;;;;;;;;;;29.58;30.27;100110.59;6875377;25;20000;-68
2024/04/10 11:22:02;;;;;;;2.83;1.10;;;;;;;29.48;31.88;100116.44;6874891;25;19929;-68
2024/04/10 11:25:03;;;;;;;7.60;1.40;;;;;;;29.86;30.20;100129.06;6874818;25;19997;-68
2024/04/10 11:28:04;;;;;;;3.08;1.20;;;;;;;30.18;29.45;100120.09;6907886;25;20465;-69
2024/04/10 11:31:06;;;;;;;;;;;;;;;30.06;30.45;100119.97;6908181;25;20469;-69
2024/04/10 11:34:07;;;;;;;5.78;1.05;;;;;;;29.99;28.64;100114.66;6874553;25;19955;-68
2024/04/10 11:37:08;;;;;;;7.68;1.20;;;;;;;30.08;30.49;100117.91;6907300;25;20004;-70
2024/04/10 11:40:12;;;;;;;6.88;1.13;;;;;;;30.37;30.67;100120.97;6874576;25;20087;-70
2024/04/10 11:43:12;;;;;;;6.32;1.33;;;;;;;30.71;29.92;100111.50;6874417;25;20023;-70
2024/04/10 11:46:13;;;;;;;2.75;1.08;;;;;;;30.83;28.37;100119.66;6874633;25;20339;-68
2024/04/10 11:49:14;;;;;;;3.90;1.08;;;;;;;30.64;28.07;100116.97;6874655;25;19992;-70
2024/04/10 11:52:15;;;;;;;4.03;1.13;;;;;;;30.51;28.24;100122.50;6907326;25;20012;-69
2024/04/10 11:55:15;;;;;;;9.65;1.30;;;;;;;30.45;30.81;100115.31;6874343;25;19996;-69
2024/04/10 11:58:16;;;;;;;4.80;1.10;;;;;;;30.59;30.11;100113.31;6874398;25;20004;-69
2024/04/10 12:01:17;;;;;;;1.35;0.90;;;;;;;30.60;29.07;100115.78;6874181;25;19993;-69
2024/04/10 12:04:21;;;;;;;4.63;1.33;;;;;;;30.57;29.23;100118.09;6906849;25;20556;-68
2024/04/10 12:07:21;;;;;;;4.15;1.30;;;;;;;30.50;28.75;100112.78;6874226;25;20063;-69
2024/04/10 12:10:25;;;;;;;5.13;1.30;;;;;;;30.56;29.23;100111.03;6906876;25;19993;-68
2024/04/10 12:13:27;;;;;;;4.38;1.60;;;;;;;30.75;29.49;100115.41;6906518;25;20001;-68
2024/04/10 12:16:28;;;;;;;5.13;1.20;;;;;;;30.23;29.29;100109.47;6906893;25;20008;-69
2024/04/10 12:19:31;;;;;;;2.67;1.20;;;;;;;30.65;28.43;100098.94;6906517;25;19992;-69
2024/04/10 12:22:32;;;;;;;4.78;1.38;;;;;;;30.93;30.06;100112.72;6905003;25;20072;-69
2024/04/10 12:25:32;;;;;;;6.70;1.30;;;;;;;30.32;29.08;100106.31;6873667;25;20372;-68
2024/04/10 12:28:33;;;;;;;3.58;1.13;;;;;;;30.53;29.90;100113.13;6874191;25;20557;-68
2024/04/10 12:31:34;;;;;;;5.30;1.48;;;;;;;30.52;30.53;100108.81;6873705;25;19996;-69
2024/04/10 12:34:35;;;;;;;3.03;1.17;;;;;;;30.43;30.84;100104.75;6873768;25;19997;-68
2024/04/10 12:41:05;;;;;;;2.67;1.17;;;;;;;30.12;31.44;100113.72;6905686;25;20072;-69
2024/04/10 12:44:18;;;;;;;2.13;1.08;;;;;;;30.60;31.70;100107.69;6906038;25;19997;-69
2024/04/10 12:47:18;;;;;;;6.70;1.30;;;;;;;30.89;31.51;100108.03;6873430;25;20459;-68
2024/04/10 12:50:19;;;;;;;7.00;1.25;;;;;;;29.89;32.09;100107.09;6906268;25;20063;-68
2024/04/10 12:53:20;;;;;;;5.60;1.25;;;;;;;29.42;31.05;100111.94;6873509;25;19988;-69
2024/04/10 12:56:21;;;;;;;7.47;1.23;;;;;;;29.80;31.41;100107.59;6873059;25;20061;-69
2024/04/10 12:59:23;;;;;;;3.45;1.17;;;;;;;29.12;31.33;100111.69;6873266;25;20029;-68
2024/04/10 13:02:27;;;;;;;2.80;1.42;;;;;;;28.58;31.63;100111.03;6873194;25;20331;-69
2024/04/10 13:05:30;;;;;;;4.28;1.35;;;;;;;29.36;31.50;100104.72;6905655;25;20032;-68
2024/04/10 13:08:31;;;;;;;3.00;1.05;;;;;;;29.46;32.26;100099.69;6873151;25;20007;-68
2024/04/10 13:11:32;;;;;;;6.07;1.42;;;;;;;29.60;30.54;100113.06;6873031;25;19992;-68
2024/04/10 13:14:33;;;;;;;2.00;1.35;;;;;;;30.06;31.98;100104.69;6905597;25;20072;-70
2024/04/10 13:17:34;;;;;;;4.22;1.15;;;;;;;30.28;31.57;100106.97;6872699;25;20540;-68
2024/04/10 13:20:35;;;;;;;7.82;1.55;;;;;;;30.31;30.89;100109.22;6873008;25;19992;-68
2024/04/10 13:23:37;;;;;;;5.25;1.35;;;;;;;30.25;29.92;100107.38;6905535;25;20008;-70
2024/04/10 13:26:39;;;;;;;8.75;1.35;;;;;;;29.86;31.97;100118.28;6905409;25;19997;-70
2024/04/10 13:29:40;;;;;;;5.75;1.20;;;;;;;28.63;33.44;100116.56;6905399;25;20011;-68
2024/04/10 13:32:41;;;;;;;13.98;1.58;;;;;;;29.00;33.65;100114.19;6904593;25;19993;-77
2024/04/10 13:35:44;;;;;;;6.18;1.15;;;;;;;29.16;33.21;100120.97;6872427;25;20376;-77
2024/04/10 13:38:47;;;;;;;2.88;1.40;;;;;;;29.08;32.92;100118.50;6905002;25;20454;-76
2024/04/10 13:41:48;;;;;;;12.68;1.63;;;;;;;29.08;33.48;100110.44;6872308;25;20072;-68
2024/04/10 13:44:51;;;;;;;12.85;1.23;;;;;;;29.22;32.32;100111.22;6904957;25;20347;-69
2024/04/10 13:47:52;;;;;;;2.70;1.70;;;;;;;28.92;32.18;100117.94;6906339;25;20049;-68
2024/04/10 13:50:58;;;;;;;4.13;1.50;;;;;;;29.40;32.80;100115.88;6911997;25;20452;-69
2024/04/10 13:53:59;;;;;;;8.68;1.42;;;;;;;29.38;32.80;100115.28;6902567;25;20000;-69
2024/04/10 13:57:00;;;;;;;7.45;1.48;;;;;;;28.94;33.16;100120.41;6916545;25;19996;-68
2024/04/10 14:00:06;;;;;;;3.55;1.33;;;;;;;28.61;33.66;100125.88;6936410;25;20449;-68
2024/04/10 14:03:07;;;;;;;5.80;1.35;;;;;;;28.56;34.05;100125.69;6921528;25;19996;-68
2024/04/10 14:06:08;;;;;;;11.93;1.25;;;;;;;28.77;34.22;100128.13;6882139;25;20008;-69
2024/04/10 14:09:10;;;;;;;6.47;1.50;;;;;;;28.57;33.53;100121.97;6926786;25;20482;-68
2024/04/10 14:12:10;;;;;;;;;;;;;;;28.75;34.04;100124.00;6894722;25;20015;-68